createdAt,value
2022-12-04T00:01:42.134Z,100742.98
2022-12-04T00:04:11.057Z,100744.22
2022-12-04T00:06:39.734Z,100748.19
2022-12-04T00:09:09.273Z,100751.86
2022-12-04T00:11:38.526Z,100748.68
2022-12-04T00:14:07.716Z,100744.95
2022-12-04T00:16:36.605Z,100739.06
2022-12-04T00:19:05.601Z,100737.16
2022-12-04T00:21:34.605Z,100737.98
2022-12-04T00:24:03.805Z,100729.84
2022-12-04T00:26:32.378Z,100743.40
2022-12-04T00:29:01.318Z,100739.78
2022-12-04T00:31:31.275Z,100740.78
2022-12-04T00:34:00.740Z,100738.51
2022-12-04T00:36:30.808Z,100730.90
2022-12-04T00:39:00.958Z,100724.02
2022-12-04T00:41:31.921Z,100722.71
2022-12-04T00:44:02.404Z,100724.33
2022-12-04T00:46:31.194Z,100724.17
2022-12-04T00:49:02.728Z,100734.30
2022-12-04T00:51:31.631Z,100732.91
2022-12-04T00:53:59.964Z,100727.98
2022-12-04T00:56:29.862Z,100721.71
2022-12-04T00:59:00.283Z,100725.52
2022-12-04T01:01:29.922Z,100711.45
2022-12-04T01:03:58.757Z,100711.73
2022-12-04T01:06:30.517Z,100716.40
2022-12-04T01:09:00.422Z,100716.48
2022-12-04T01:11:30.170Z,100711.51
2022-12-04T01:13:59.291Z,100712.96
2022-12-04T01:16:32.193Z,100714.90
2022-12-04T01:19:01.426Z,100715.41
2022-12-04T01:21:29.969Z,100708.92
2022-12-04T01:23:59.304Z,100706.85
2022-12-04T01:26:27.774Z,100701.59
2022-12-04T01:28:56.368Z,100698.44
2022-12-04T01:31:25.116Z,100698.77
2022-12-04T01:33:54.094Z,100700.02
2022-12-04T01:36:25.195Z,100706.52
2022-12-04T01:38:54.688Z,100688.66
2022-12-04T01:41:29.026Z,100702.41
2022-12-04T01:44:27.190Z,100699.20
2022-12-04T01:47:00.890Z,100695.98
2022-12-04T01:49:48.208Z,100701.06
2022-12-04T01:52:21.934Z,100703.13
2022-12-04T01:54:56.736Z,100697.24
2022-12-04T01:57:29.519Z,100697.42
2022-12-04T02:00:02.050Z,100691.84
2022-12-04T02:02:35.739Z,100690.71
2022-12-04T02:05:07.738Z,100689.70
2022-12-04T02:07:39.131Z,100683.82
2022-12-04T02:10:09.882Z,100672.65
2022-12-04T02:13:02.610Z,100669.81
2022-12-04T02:15:34.255Z,100685.13
2022-12-04T02:18:23.833Z,100693.93
2022-12-04T02:21:16.909Z,100687.45
2022-12-04T02:24:26.848Z,100686.09
2022-12-04T02:27:17.344Z,100692.14
2022-12-04T02:30:05.688Z,100687.42
2022-12-04T02:32:45.833Z,100684.05
2022-12-04T02:35:24.071Z,100682.45
2022-12-04T02:37:59.261Z,100681.39
2022-12-04T02:41:09.351Z,100679.64
2022-12-04T02:43:52.566Z,100674.49
2022-12-04T02:46:28.803Z,100671.85
2022-12-04T02:49:04.488Z,100673.42
2022-12-04T02:51:38.327Z,100673.88
2022-12-04T02:54:15.170Z,100676.38
2022-12-04T02:56:45.558Z,100675.77
2022-12-04T02:59:28.512Z,100679.42
2022-12-04T03:02:00.455Z,100663.09
2022-12-04T03:04:32.875Z,100678.83
2022-12-04T03:07:09.939Z,100675.95
2022-12-04T03:09:50.912Z,100678.46
2022-12-04T03:12:49.299Z,100669.02
2022-12-04T03:15:42.636Z,100673.25
2022-12-04T03:18:35.210Z,100678.13
2022-12-04T03:21:10.034Z,100681.63
2022-12-04T03:23:47.013Z,100679.93
2022-12-04T03:26:24.196Z,100673.77
2022-12-04T03:29:10.905Z,100680.98
2022-12-04T03:31:53.728Z,100678.12
2022-12-04T03:34:32.997Z,100678.20
2022-12-04T03:37:08.810Z,100678.66
2022-12-04T03:39:52.621Z,100677.86
2022-12-04T03:42:26.667Z,100670.84
2022-12-04T03:45:01.295Z,100677.10
2022-12-04T03:47:35.347Z,100676.25
2022-12-04T03:50:21.804Z,100673.47
2022-12-04T03:53:40.864Z,100672.23
2022-12-04T03:56:28.914Z,100664.88
2022-12-04T03:59:07.016Z,100665.66
2022-12-04T04:01:41.068Z,100650.86
2022-12-04T04:04:16.101Z,100668.11
2022-12-04T04:06:53.238Z,100664.66
2022-12-04T04:09:25.505Z,100663.70
2022-12-04T04:12:20.320Z,100662.20
2022-12-04T04:15:10.064Z,100660.39
2022-12-04T04:18:06.329Z,100658.36
2022-12-04T04:21:05.936Z,100644.15
2022-12-04T04:23:59.307Z,100658.49
2022-12-04T04:26:32.516Z,100662.55
2022-12-04T04:29:00.771Z,100667.02
2022-12-04T04:31:47.600Z,100661.05
2022-12-04T04:34:39.152Z,100659.41
2022-12-04T04:37:47.326Z,100659.96
2022-12-04T04:40:36.075Z,100662.51
2022-12-04T04:43:17.875Z,100661.26
2022-12-04T04:45:54.337Z,100662.14
2022-12-04T04:48:51.240Z,100656.95
2022-12-04T04:51:20.688Z,100658.58
2022-12-04T04:53:53.870Z,100662.23
2022-12-04T04:56:22.929Z,100658.98
2022-12-04T04:58:51.344Z,100658.17
2022-12-04T05:01:23.212Z,100654.27
2022-12-04T05:03:51.688Z,100655.67
2022-12-04T05:06:20.016Z,100653.26
2022-12-04T05:08:49.450Z,100650.64
2022-12-04T05:11:18.153Z,100650.50
2022-12-04T05:13:46.454Z,100649.30
2022-12-04T05:16:16.589Z,100652.90
2022-12-04T05:19:03.773Z,100651.42
2022-12-04T05:21:32.985Z,100649.56
2022-12-04T05:24:02.325Z,100645.80
2022-12-04T05:26:30.542Z,100647.10
2022-12-04T05:28:58.725Z,100650.09
2022-12-04T05:31:27.264Z,100627.91
2022-12-04T05:33:57.337Z,100650.88
2022-12-04T05:36:25.605Z,100654.02
2022-12-04T05:38:53.979Z,100656.73
2022-12-04T05:41:22.463Z,100654.56
2022-12-04T05:43:50.745Z,100654.23
2022-12-04T05:46:19.057Z,100653.13
2022-12-04T05:48:47.522Z,100654.58
2022-12-04T05:51:15.773Z,100652.95
2022-12-04T05:53:44.356Z,100655.38
2022-12-04T05:56:12.749Z,100653.55
2022-12-04T05:58:43.683Z,100650.72
2022-12-04T06:01:21.365Z,100652.16
2022-12-04T06:03:50.466Z,100659.42
2022-12-04T06:06:22.666Z,100663.20
2022-12-04T06:08:53.246Z,100664.70
2022-12-04T06:11:31.170Z,100661.23
2022-12-04T06:14:00.778Z,100657.19
2022-12-04T06:16:32.480Z,100660.91
2022-12-04T06:19:04.343Z,100658.73
2022-12-04T06:21:34.728Z,100661.20
2022-12-04T06:24:04.021Z,100657.96
2022-12-04T06:26:32.493Z,100659.97
2022-12-04T06:29:00.876Z,100654.29
2022-12-04T06:31:30.361Z,100650.48
2022-12-04T06:33:59.169Z,100657.02
2022-12-04T06:36:27.668Z,100663.02
2022-12-04T06:38:57.148Z,100668.53
2022-12-04T06:41:27.681Z,100667.66
2022-12-04T06:43:56.685Z,100672.21
2022-12-04T06:46:27.695Z,100669.26
2022-12-04T06:48:58.385Z,100669.05
2022-12-04T06:51:32.974Z,100646.84
2022-12-04T06:54:01.780Z,100673.73
2022-12-04T06:56:32.819Z,100673.09
2022-12-04T06:59:03.353Z,100670.52
2022-12-04T07:01:34.052Z,100671.42
2022-12-04T07:04:04.432Z,100671.01
2022-12-04T07:06:36.334Z,100672.65
2022-12-04T07:09:11.509Z,100675.36
2022-12-04T07:11:41.113Z,100669.30
2022-12-04T07:14:10.522Z,100667.48
2022-12-04T07:16:42.235Z,100665.08
2022-12-04T07:19:13.068Z,100666.64
2022-12-04T07:21:43.118Z,100670.66
2022-12-04T07:24:17.626Z,100677.23
2022-12-04T07:26:46.332Z,100677.63
2022-12-04T07:29:14.812Z,100677.87
2022-12-04T07:31:44.759Z,100676.05
2022-12-04T07:34:13.650Z,100674.50
2022-12-04T07:36:42.307Z,100673.20
2022-12-04T07:39:10.689Z,100680.45
2022-12-04T07:41:39.272Z,100680.34
2022-12-04T07:44:08.671Z,100686.17
2022-12-04T07:46:37.352Z,100693.16
2022-12-04T07:49:06.007Z,100699.73
2022-12-04T07:51:34.625Z,100698.27
2022-12-04T07:54:04.336Z,100691.72
2022-12-04T07:56:33.784Z,100695.04
2022-12-04T07:59:03.056Z,100689.95
2022-12-04T08:01:32.389Z,100693.04
2022-12-04T08:04:01.392Z,100691.30
2022-12-04T08:06:33.287Z,100689.23
2022-12-04T08:09:07.753Z,100682.02
2022-12-04T08:11:39.288Z,100683.55
2022-12-04T08:14:12.223Z,100684.41
2022-12-04T08:16:41.146Z,100686.14
2022-12-04T08:19:10.404Z,100683.96
2022-12-04T08:21:39.086Z,100690.64
2022-12-04T08:24:09.761Z,100695.13
2022-12-04T08:26:40.645Z,100698.55
2022-12-04T08:29:09.373Z,100702.52
2022-12-04T08:31:38.175Z,100698.61
2022-12-04T08:34:08.159Z,100697.33
2022-12-04T08:36:37.334Z,100702.73
2022-12-04T08:39:06.632Z,100705.35
2022-12-04T08:41:35.528Z,100706.65
2022-12-04T08:44:04.852Z,100710.34
2022-12-04T08:46:34.321Z,100708.27
2022-12-04T08:49:03.958Z,100706.98
2022-12-04T08:51:38.487Z,100710.48
2022-12-04T08:54:09.170Z,100718.08
2022-12-04T08:56:38.211Z,100724.21
2022-12-04T08:59:07.299Z,100720.72
2022-12-04T09:01:36.041Z,100722.02
2022-12-04T09:04:05.040Z,100721.50
2022-12-04T09:06:33.546Z,100717.98
2022-12-04T09:09:01.969Z,100716.52
2022-12-04T09:11:32.615Z,100719.02
2022-12-04T09:14:04.328Z,100710.79
2022-12-04T09:16:33.585Z,100709.34
2022-12-04T09:19:05.960Z,100702.36
2022-12-04T09:21:38.093Z,100695.85
2022-12-04T09:24:08.974Z,100696.98
2022-12-04T09:26:41.072Z,100693.29
2022-12-04T09:29:13.990Z,100690.11
2022-12-04T09:31:45.268Z,100691.77
2022-12-04T09:34:17.420Z,100688.52
2022-12-04T09:36:50.763Z,100690.27
2022-12-04T09:39:20.812Z,100686.47
2022-12-04T09:42:23.774Z,100691.84
2022-12-04T09:45:18.396Z,100694.54
2022-12-04T09:47:58.607Z,100694.95
2022-12-04T09:50:45.473Z,100689.45
2022-12-04T09:53:31.083Z,100685.31
2022-12-04T09:56:05.999Z,100675.62
2022-12-04T09:58:56.355Z,100661.83
2022-12-04T10:01:38.462Z,100670.17
2022-12-04T10:04:11.365Z,100661.30
2022-12-04T10:06:48.530Z,100665.24
2022-12-04T10:09:48.073Z,100661.27
2022-12-04T10:12:38.416Z,100653.05
2022-12-04T10:15:15.558Z,100648.23
2022-12-04T10:18:06.078Z,100652.90
2022-12-04T10:20:53.380Z,100654.95
2022-12-04T10:23:30.213Z,100653.27
2022-12-04T10:26:02.819Z,100653.22
2022-12-04T10:28:37.747Z,100654.01
2022-12-04T10:31:14.258Z,100658.02
2022-12-04T10:34:05.271Z,100653.70
2022-12-04T10:36:36.893Z,100644.61
2022-12-04T10:39:25.814Z,100650.52
2022-12-04T10:41:59.936Z,100645.29
2022-12-04T10:44:32.758Z,100642.95
2022-12-04T10:47:06.794Z,100640.69
2022-12-04T10:49:39.163Z,100629.80
2022-12-04T10:52:17.922Z,100621.45
2022-12-04T10:54:56.369Z,100620.66
2022-12-04T10:57:43.869Z,100620.12
2022-12-04T11:00:30.914Z,100620.50
2022-12-04T11:03:10.339Z,100622.64
2022-12-04T11:06:10.590Z,100617.95
2022-12-04T11:08:50.976Z,100623.51
2022-12-04T11:11:28.415Z,100617.56
2022-12-04T11:14:15.946Z,100624.51
2022-12-04T11:17:02.640Z,100624.05
2022-12-04T11:19:37.526Z,100623.33
2022-12-04T11:22:19.139Z,100605.81
2022-12-04T11:24:58.297Z,100607.64
2022-12-04T11:27:38.082Z,100605.69
2022-12-04T11:30:20.415Z,100598.49
2022-12-04T11:32:55.734Z,100604.82
2022-12-04T11:35:32.550Z,100605.17
2022-12-04T11:38:17.979Z,100602.27
2022-12-04T11:40:58.729Z,100597.79
2022-12-04T11:43:33.364Z,100600.89
2022-12-04T11:46:10.663Z,100595.59
2022-12-04T11:48:46.690Z,100578.17
2022-12-04T11:51:15.906Z,100591.98
2022-12-04T11:54:22.672Z,100592.02
2022-12-04T11:57:24.321Z,100592.23
2022-12-04T12:00:03.164Z,100590.79
2022-12-04T12:03:06.975Z,100594.04
2022-12-04T12:05:39.580Z,100593.10
2022-12-04T12:08:34.765Z,100595.32
2022-12-04T12:11:17.039Z,100602.67
2022-12-04T12:13:52.746Z,100603.95
2022-12-04T12:19:34.401Z,100599.49
2022-12-04T12:22:15.592Z,100600.08
2022-12-04T12:25:03.114Z,100598.20
2022-12-04T12:28:02.455Z,100601.80
2022-12-04T12:30:44.510Z,100601.80
2022-12-04T12:33:33.435Z,100601.39
2022-12-04T12:36:11.227Z,100599.73
2022-12-04T12:38:56.772Z,100605.48
2022-12-04T12:41:37.665Z,100602.36
2022-12-04T12:44:28.122Z,100592.30
2022-12-04T12:47:10.576Z,100586.38
2022-12-04T12:49:54.491Z,100582.24
2022-12-04T12:52:30.263Z,100576.17
2022-12-04T12:55:23.600Z,100579.77
2022-12-04T12:58:17.741Z,100579.01
2022-12-04T13:01:26.867Z,100566.83
2022-12-04T13:04:03.776Z,100565.08
2022-12-04T13:06:45.096Z,100563.45
2022-12-04T13:09:28.205Z,100561.13
2022-12-04T13:12:08.835Z,100558.14
2022-12-04T13:14:39.063Z,100555.48
2022-12-04T13:17:21.389Z,100554.53
2022-12-04T13:19:55.479Z,100550.80
2022-12-04T13:22:31.075Z,100550.52
2022-12-04T13:25:10.006Z,100549.34
2022-12-04T13:28:06.062Z,100545.75
2022-12-04T13:30:57.031Z,100545.78
2022-12-04T13:33:50.905Z,100553.61
2022-12-04T13:36:46.842Z,100558.69
2022-12-04T13:39:27.077Z,100559.80
2022-12-04T13:42:02.494Z,100547.08
2022-12-04T13:44:34.291Z,100555.17
2022-12-04T13:47:12.027Z,100554.36
2022-12-04T13:49:46.299Z,100560.20
2022-12-04T13:52:37.516Z,100571.34
2022-12-04T13:55:26.600Z,100571.73
2022-12-04T13:58:11.967Z,100566.70
2022-12-04T14:00:45.210Z,100564.73
2022-12-04T14:03:29.602Z,100564.50
2022-12-04T14:06:05.551Z,100565.66
2022-12-04T14:08:45.116Z,100566.55
2022-12-04T14:11:18.408Z,100566.43
2022-12-04T14:13:49.720Z,100562.23
2022-12-04T14:16:25.986Z,100565.55
2022-12-04T14:19:02.573Z,100569.61
2022-12-04T14:21:45.616Z,100567.41
2022-12-04T14:24:37.604Z,100569.05
2022-12-04T14:27:35.403Z,100572.55
2022-12-04T14:30:07.013Z,100568.77
2022-12-04T14:32:37.286Z,100569.46
2022-12-04T14:35:14.232Z,100570.27
2022-12-04T14:38:08.266Z,100574.89
2022-12-04T14:40:48.627Z,100574.55
2022-12-04T14:43:24.684Z,100577.02
2022-12-04T14:46:26.653Z,100578.16
2022-12-04T14:49:15.899Z,100582.55
2022-12-04T14:52:46.658Z,100584.17
2022-12-04T14:55:27.753Z,100581.75
2022-12-04T14:58:30.897Z,100583.92
2022-12-04T15:01:22.658Z,100582.35
2022-12-04T15:03:58.362Z,100574.37
2022-12-04T15:06:30.036Z,100588.91
2022-12-04T15:09:20.616Z,100589.98
2022-12-04T15:12:17.883Z,100590.99
2022-12-04T15:14:50.051Z,100592.02
2022-12-04T15:17:19.247Z,100594.06
2022-12-04T15:19:47.991Z,100595.31
2022-12-04T15:22:28.595Z,100592.15
2022-12-04T15:24:58.235Z,100597.73
2022-12-04T15:27:32.691Z,100588.91
2022-12-04T15:30:03.865Z,100593.93
2022-12-04T15:32:33.415Z,100592.59
2022-12-04T15:35:09.338Z,100589.94
2022-12-04T15:37:38.539Z,100593.02
2022-12-04T15:40:08.907Z,100587.98
2022-12-04T15:42:38.614Z,100593.90
2022-12-04T15:45:11.381Z,100598.98
2022-12-04T15:47:44.223Z,100600.20
2022-12-04T15:50:17.114Z,100599.88
2022-12-04T15:52:56.063Z,100600.59
2022-12-04T15:55:26.455Z,100593.96
2022-12-04T15:58:16.826Z,100595.70
2022-12-04T16:00:46.328Z,100592.73
2022-12-04T16:03:28.690Z,100592.60
2022-12-04T16:06:18.422Z,100580.92
2022-12-04T16:09:13.093Z,100588.92
2022-12-04T16:11:43.355Z,100586.41
2022-12-04T16:14:12.719Z,100581.96
2022-12-04T16:16:48.059Z,100582.48
2022-12-04T16:19:29.924Z,100582.10
2022-12-04T16:22:00.907Z,100585.89
2022-12-04T16:24:30.393Z,100587.23
2022-12-04T16:27:01.387Z,100597.69
2022-12-04T16:29:32.239Z,100598.83
2022-12-04T16:32:03.641Z,100607.29
2022-12-04T16:34:32.735Z,100606.24
2022-12-04T16:37:01.427Z,100610.17
2022-12-04T16:39:30.546Z,100613.17
2022-12-04T16:41:59.594Z,100621.34
2022-12-04T16:44:27.980Z,100614.41
2022-12-04T16:46:56.742Z,100611.68
2022-12-04T16:49:25.671Z,100612.23
2022-12-04T16:51:54.451Z,100614.11
2022-12-04T16:54:23.235Z,100615.83
2022-12-04T16:56:52.113Z,100614.11
2022-12-04T16:59:21.591Z,100615.23
2022-12-04T17:01:51.861Z,100613.79
2022-12-04T17:04:20.715Z,100607.10
2022-12-04T17:06:50.580Z,100609.37
2022-12-04T17:09:21.054Z,100610.70
2022-12-04T17:11:51.433Z,100614.95
2022-12-04T17:14:20.925Z,100619.77
2022-12-04T17:16:52.606Z,100616.83
2022-12-04T17:19:22.072Z,100618.16
2022-12-04T17:21:54.738Z,100615.48
2022-12-04T17:24:26.449Z,100615.21
2022-12-04T17:26:55.639Z,100615.54
2022-12-04T17:29:26.007Z,100616.16
2022-12-04T17:31:56.379Z,100617.76
2022-12-04T17:34:26.716Z,100618.27
2022-12-04T17:36:56.778Z,100617.33
2022-12-04T17:39:26.519Z,100616.77
2022-12-04T17:41:56.041Z,100617.61
2022-12-04T17:44:25.136Z,100621.37
2022-12-04T17:46:55.260Z,100625.91
2022-12-04T17:49:24.177Z,100621.16
2022-12-04T17:51:53.863Z,100620.33
2022-12-04T17:54:24.282Z,100616.52
2022-12-04T17:56:57.773Z,100617.75
2022-12-04T17:59:28.408Z,100613.52
2022-12-04T18:01:58.067Z,100614.15
2022-12-04T18:04:27.307Z,100612.34
2022-12-04T18:06:57.546Z,100606.90
2022-12-04T18:09:27.354Z,100601.98
2022-12-04T18:11:58.959Z,100605.09
2022-12-04T18:14:32.660Z,100600.33
2022-12-04T18:17:04.797Z,100599.61
2022-12-04T18:19:35.038Z,100604.12
2022-12-04T18:22:05.004Z,100595.10
2022-12-04T18:24:35.117Z,100595.27
2022-12-04T18:27:05.978Z,100597.05
2022-12-04T18:29:35.229Z,100596.19
2022-12-04T18:32:04.937Z,100591.00
2022-12-04T18:34:34.300Z,100601.09
2022-12-04T18:37:04.512Z,100598.87
2022-12-04T18:39:34.249Z,100589.21
2022-12-04T18:42:03.198Z,100587.55
2022-12-04T18:44:32.115Z,100582.27
2022-12-04T18:47:03.264Z,100585.79
2022-12-04T18:49:32.729Z,100581.64
2022-12-04T18:52:02.146Z,100587.40
2022-12-04T18:54:31.559Z,100585.83
2022-12-04T18:57:01.013Z,100581.27
2022-12-04T18:59:30.369Z,100579.46
2022-12-04T19:01:59.171Z,100582.61
2022-12-04T19:04:27.919Z,100585.50
2022-12-04T19:06:56.846Z,100583.74
2022-12-04T19:10:02.122Z,100580.43
2022-12-04T19:12:17.626Z,100584.58
2022-12-04T19:14:46.030Z,100587.46
2022-12-04T19:17:15.620Z,100590.95
2022-12-04T19:19:44.448Z,100587.23
2022-12-04T19:22:14.625Z,100592.17
2022-12-04T19:24:43.906Z,100604.54
2022-12-04T19:27:13.576Z,100602.42
2022-12-04T19:29:43.807Z,100608.16
2022-12-04T19:32:13.247Z,100607.31
2022-12-04T19:34:42.883Z,100602.90
2022-12-04T19:37:15.565Z,100609.30
2022-12-04T19:39:45.578Z,100611.52
2022-12-04T19:42:14.101Z,100615.10
2022-12-04T19:44:50.352Z,100619.42
2022-12-04T19:47:20.293Z,100618.77
2022-12-04T19:49:53.038Z,100621.69
2022-12-04T19:52:26.257Z,100622.73
2022-12-04T19:54:59.439Z,100622.52
2022-12-04T19:57:31.307Z,100619.35
2022-12-04T20:00:04.337Z,100623.50
2022-12-04T20:03:50.665Z,100627.95
2022-12-04T20:12:28.795Z,100617.11
2022-12-04T20:15:48.197Z,100619.05
2022-12-04T20:22:28.420Z,100626.69
2022-12-04T20:35:30.985Z,100635.96
2022-12-04T20:38:17.809Z,100636.64
2022-12-04T20:40:46.683Z,100636.20
2022-12-04T20:43:15.700Z,100638.02
2022-12-04T20:45:44.658Z,100639.88
2022-12-04T20:48:13.655Z,100635.13
2022-12-04T20:50:46.678Z,100625.41
2022-12-04T20:53:17.001Z,100623.91
2022-12-04T20:55:57.822Z,100618.46
2022-12-04T20:58:28.881Z,100614.86
2022-12-04T21:01:08.318Z,100610.92
2022-12-04T21:03:39.399Z,100608.20
2022-12-04T21:06:35.188Z,100610.35
2022-12-04T21:09:16.426Z,100615.85
2022-12-04T21:11:49.690Z,100614.98
2022-12-04T21:14:42.303Z,100611.59
2022-12-04T21:17:17.177Z,100606.48
2022-12-04T21:19:47.972Z,100614.60
2022-12-04T21:22:18.669Z,100611.01
2022-12-04T21:24:48.169Z,100609.00
2022-12-04T21:27:21.217Z,100599.27
2022-12-04T21:29:51.526Z,100600.85
2022-12-04T21:32:20.937Z,100606.17
2022-12-04T21:34:50.710Z,100599.39
2022-12-04T21:37:21.211Z,100597.52
2022-12-04T21:39:51.112Z,100590.89
2022-12-04T21:42:33.134Z,100583.20
2022-12-04T21:45:06.313Z,100597.55
2022-12-04T21:47:36.376Z,100599.71
2022-12-04T21:50:06.206Z,100596.80
2022-12-04T21:52:34.803Z,100594.17
2022-12-04T21:55:03.572Z,100596.26
2022-12-04T21:57:32.026Z,100593.42
2022-12-04T22:00:00.863Z,100591.44
2022-12-04T22:02:29.647Z,100594.73
2022-12-04T22:04:58.524Z,100589.29
2022-12-04T22:07:27.998Z,100587.16
2022-12-04T22:09:57.212Z,100587.02
2022-12-04T22:12:48.447Z,100584.75
2022-12-04T22:15:16.981Z,100583.53
2022-12-04T22:17:45.496Z,100588.73
2022-12-04T22:20:16.817Z,100582.06
2022-12-04T22:22:46.145Z,100572.56
2022-12-04T22:25:15.046Z,100572.52
2022-12-04T22:27:43.843Z,100569.86
2022-12-04T22:30:13.649Z,100573.77
2022-12-04T22:32:43.908Z,100581.26
2022-12-04T22:35:13.880Z,100583.33
2022-12-04T22:37:44.540Z,100579.22
2022-12-04T22:40:15.346Z,100570.28
2022-12-04T22:42:44.653Z,100561.31
2022-12-04T22:45:14.057Z,100568.52
2022-12-04T22:47:42.429Z,100553.80
2022-12-04T22:50:12.174Z,100552.20
2022-12-04T22:52:40.827Z,100548.98
2022-12-04T22:55:10.366Z,100553.04
2022-12-04T22:57:38.804Z,100556.58
2022-12-04T23:00:09.477Z,100565.86
2022-12-04T23:02:37.778Z,100562.58
2022-12-04T23:05:07.076Z,100562.73
2022-12-04T23:07:35.418Z,100559.98
2022-12-04T23:10:05.332Z,100559.30
2022-12-04T23:12:34.001Z,100555.10
2022-12-04T23:15:03.261Z,100548.38
2022-12-04T23:17:32.093Z,100552.05
2022-12-04T23:20:00.454Z,100550.77
2022-12-04T23:22:28.849Z,100553.13
2022-12-04T23:24:57.116Z,100549.88
2022-12-04T23:27:25.606Z,100548.41
2022-12-04T23:29:54.147Z,100544.58
2022-12-04T23:32:22.567Z,100541.28
2022-12-04T23:34:53.235Z,100544.38
2022-12-04T23:37:22.239Z,100546.48
2022-12-04T23:39:50.876Z,100545.80
2022-12-04T23:42:19.254Z,100550.59
2022-12-04T23:44:47.622Z,100550.41
2022-12-04T23:47:16.293Z,100554.13
2022-12-04T23:49:45.005Z,100554.90
2022-12-04T23:52:13.219Z,100549.80
2022-12-04T23:54:41.750Z,100541.90
2022-12-04T23:57:10.559Z,100536.23
2022-12-04T23:59:38.928Z,100536.52
